sensor_id;sensor_type;location;lat;lon;timestamp;temperature;humidity
22607;DHT22;11470;20.968;105.834;2023-03-01T00:01:05;17.80;99.90
22607;DHT22;11470;20.968;105.834;2023-03-01T00:06:11;17.80;99.90
22607;DHT22;11470;20.968;105.834;2023-03-01T00:11:21;17.90;99.90
22607;DHT22;11470;20.968;105.834;2023-03-01T00:16:33;18.00;99.90
22607;DHT22;11470;20.968;105.834;2023-03-01T00:21:40;17.90;99.90
22607;DHT22;11470;20.968;105.834;2023-03-01T00:26:46;17.90;99.90
22607;DHT22;11470;20.968;105.834;2023-03-01T00:31:53;18.00;99.90
22607;DHT22;11470;20.968;105.834;2023-03-01T00:36:59;18.10;99.90
22607;DHT22;11470;20.968;105.834;2023-03-01T00:42:11;18.20;99.90
22607;DHT22;11470;20.968;105.834;2023-03-01T00:47:16;18.20;99.90
22607;DHT22;11470;20.968;105.834;2023-03-01T00:52:22;18.20;99.90
22607;DHT22;11470;20.968;105.834;2023-03-01T00:57:28;18.30;99.90
22607;DHT22;11470;20.968;105.834;2023-03-01T01:02:34;18.40;99.90
22607;DHT22;11470;20.968;105.834;2023-03-01T01:07:41;18.40;99.90
22607;DHT22;11470;20.968;105.834;2023-03-01T01:12:48;18.50;99.90
22607;DHT22;11470;20.968;105.834;2023-03-01T01:17:54;18.50;99.90
22607;DHT22;11470;20.968;105.834;2023-03-01T01:23:00;18.50;99.90
22607;DHT22;11470;20.968;105.834;2023-03-01T01:28:06;18.70;99.90
22607;DHT22;11470;20.968;105.834;2023-03-01T01:33:12;18.80;99.90
22607;DHT22;11470;20.968;105.834;2023-03-01T01:38:19;18.90;99.90
22607;DHT22;11470;20.968;105.834;2023-03-01T01:43:37;19.40;99.90
22607;DHT22;11470;20.968;105.834;2023-03-01T01:48:56;19.60;99.90
22607;DHT22;11470;20.968;105.834;2023-03-01T01:54:34;19.80;99.90
22607;DHT22;11470;20.968;105.834;2023-03-01T01:59:46;19.80;99.90
22607;DHT22;11470;20.968;105.834;2023-03-01T02:05:01;19.50;99.90
22607;DHT22;11470;20.968;105.834;2023-03-01T02:10:10;19.60;99.90
22607;DHT22;11470;20.968;105.834;2023-03-01T02:15:18;19.50;99.90
22607;DHT22;11470;20.968;105.834;2023-03-01T02:30:47;19.50;99.90
22607;DHT22;11470;20.968;105.834;2023-03-01T02:36:18;19.50;99.90
22607;DHT22;11470;20.968;105.834;2023-03-01T02:41:27;19.60;99.90
22607;DHT22;11470;20.968;105.834;2023-03-01T02:46:49;19.70;99.90
22607;DHT22;11470;20.968;105.834;2023-03-01T02:57:24;19.60;99.90
22607;DHT22;11470;20.968;105.834;2023-03-01T03:02:32;19.50;99.90
22607;DHT22;11470;20.968;105.834;2023-03-01T03:07:51;19.20;99.90
22607;DHT22;11470;20.968;105.834;2023-03-01T03:13:06;19.30;99.90
22607;DHT22;11470;20.968;105.834;2023-03-01T03:18:15;19.50;99.90
22607;DHT22;11470;20.968;105.834;2023-03-01T03:23:25;19.40;99.90
22607;DHT22;11470;20.968;105.834;2023-03-01T03:28:32;19.30;99.90
22607;DHT22;11470;20.968;105.834;2023-03-01T03:33:38;19.20;99.90
22607;DHT22;11470;20.968;105.834;2023-03-01T03:38:44;19.40;99.90
22607;DHT22;11470;20.968;105.834;2023-03-01T03:43:51;19.50;99.90
22607;DHT22;11470;20.968;105.834;2023-03-01T03:48:58;19.80;99.90
22607;DHT22;11470;20.968;105.834;2023-03-01T03:54:11;20.00;99.90
22607;DHT22;11470;20.968;105.834;2023-03-01T03:59:32;20.60;99.90
22607;DHT22;11470;20.968;105.834;2023-03-01T04:04:38;20.80;99.90
22607;DHT22;11470;20.968;105.834;2023-03-01T04:09:45;20.90;99.90
22607;DHT22;11470;20.968;105.834;2023-03-01T04:14:51;21.00;99.90
22607;DHT22;11470;20.968;105.834;2023-03-01T04:20:00;21.10;99.90
22607;DHT22;11470;20.968;105.834;2023-03-01T04:25:10;21.10;99.90
22607;DHT22;11470;20.968;105.834;2023-03-01T04:30:19;21.00;99.90
22607;DHT22;11470;20.968;105.834;2023-03-01T04:35:32;20.70;99.90
22607;DHT22;11470;20.968;105.834;2023-03-01T04:40:39;20.30;99.90
22607;DHT22;11470;20.968;105.834;2023-03-01T04:45:48;20.20;99.90
22607;DHT22;11470;20.968;105.834;2023-03-01T04:50:56;20.50;99.90
22607;DHT22;11470;20.968;105.834;2023-03-01T04:56:04;20.70;99.90
22607;DHT22;11470;20.968;105.834;2023-03-01T05:01:20;20.70;99.90
22607;DHT22;11470;20.968;105.834;2023-03-01T05:06:26;20.60;99.90
22607;DHT22;11470;20.968;105.834;2023-03-01T05:11:33;20.80;99.90
22607;DHT22;11470;20.968;105.834;2023-03-01T05:16:41;21.40;99.90
22607;DHT22;11470;20.968;105.834;2023-03-01T05:21:48;21.40;99.90
22607;DHT22;11470;20.968;105.834;2023-03-01T05:27:10;21.30;99.90
22607;DHT22;11470;20.968;105.834;2023-03-01T05:32:18;22.00;99.90
22607;DHT22;11470;20.968;105.834;2023-03-01T05:37:24;22.10;99.90
22607;DHT22;11470;20.968;105.834;2023-03-01T05:42:30;22.10;99.90
22607;DHT22;11470;20.968;105.834;2023-03-01T05:47:38;22.20;99.90
22607;DHT22;11470;20.968;105.834;2023-03-01T05:53:14;21.70;99.90
22607;DHT22;11470;20.968;105.834;2023-03-01T05:58:22;21.60;99.90
22607;DHT22;11470;20.968;105.834;2023-03-01T06:03:29;21.80;99.90
22607;DHT22;11470;20.968;105.834;2023-03-01T06:08:39;21.90;99.90
22607;DHT22;11470;20.968;105.834;2023-03-01T06:13:45;21.90;99.90
22607;DHT22;11470;20.968;105.834;2023-03-01T06:18:52;22.10;99.90
22607;DHT22;11470;20.968;105.834;2023-03-01T06:23:58;21.70;99.90
22607;DHT22;11470;20.968;105.834;2023-03-01T06:29:04;21.60;99.90
22607;DHT22;11470;20.968;105.834;2023-03-01T06:34:10;21.60;99.90
22607;DHT22;11470;20.968;105.834;2023-03-01T06:39:33;22.00;99.90
22607;DHT22;11470;20.968;105.834;2023-03-01T06:44:39;22.10;99.90
22607;DHT22;11470;20.968;105.834;2023-03-01T06:49:45;22.10;99.90
22607;DHT22;11470;20.968;105.834;2023-03-01T06:54:51;22.20;99.90
22607;DHT22;11470;20.968;105.834;2023-03-01T07:00:00;21.90;99.90
22607;DHT22;11470;20.968;105.834;2023-03-01T07:05:07;21.70;99.90
22607;DHT22;11470;20.968;105.834;2023-03-01T07:10:13;21.90;99.90
22607;DHT22;11470;20.968;105.834;2023-03-01T07:15:24;22.00;99.90
22607;DHT22;11470;20.968;105.834;2023-03-01T07:20:30;22.00;99.90
22607;DHT22;11470;20.968;105.834;2023-03-01T07:25:36;22.10;99.90
22607;DHT22;11470;20.968;105.834;2023-03-01T07:30:42;22.00;99.90
22607;DHT22;11470;20.968;105.834;2023-03-01T07:35:59;21.60;99.90
22607;DHT22;11470;20.968;105.834;2023-03-01T07:41:05;21.40;99.90
22607;DHT22;11470;20.968;105.834;2023-03-01T07:46:12;21.20;99.90
22607;DHT22;11470;20.968;105.834;2023-03-01T07:51:18;21.00;99.90
22607;DHT22;11470;20.968;105.834;2023-03-01T07:56:27;21.00;99.90
22607;DHT22;11470;20.968;105.834;2023-03-01T08:01:34;21.00;99.90
22607;DHT22;11470;20.968;105.834;2023-03-01T08:06:40;21.10;99.90
22607;DHT22;11470;20.968;105.834;2023-03-01T08:11:49;21.10;99.90
22607;DHT22;11470;20.968;105.834;2023-03-01T08:16:56;21.20;99.90
22607;DHT22;11470;20.968;105.834;2023-03-01T08:22:03;21.30;99.90
22607;DHT22;11470;20.968;105.834;2023-03-01T08:27:10;21.40;99.90
22607;DHT22;11470;20.968;105.834;2023-03-01T08:32:17;21.50;99.90
22607;DHT22;11470;20.968;105.834;2023-03-01T08:37:25;21.70;99.90
22607;DHT22;11470;20.968;105.834;2023-03-01T08:42:33;21.70;99.90
22607;DHT22;11470;20.968;105.834;2023-03-01T08:47:39;21.80;99.90
22607;DHT22;11470;20.968;105.834;2023-03-01T08:52:46;21.80;99.90
22607;DHT22;11470;20.968;105.834;2023-03-01T08:57:53;21.70;99.90
22607;DHT22;11470;20.968;105.834;2023-03-01T09:02:59;21.50;99.90
22607;DHT22;11470;20.968;105.834;2023-03-01T09:08:05;21.50;99.90
22607;DHT22;11470;20.968;105.834;2023-03-01T09:13:14;21.20;99.90
22607;DHT22;11470;20.968;105.834;2023-03-01T09:18:20;21.10;99.90
22607;DHT22;11470;20.968;105.834;2023-03-01T09:23:26;21.10;99.90
22607;DHT22;11470;20.968;105.834;2023-03-01T09:28:33;21.10;99.90
22607;DHT22;11470;20.968;105.834;2023-03-01T09:33:40;21.00;99.90
22607;DHT22;11470;20.968;105.834;2023-03-01T09:38:48;21.00;99.90
22607;DHT22;11470;20.968;105.834;2023-03-01T09:43:58;20.90;99.90
22607;DHT22;11470;20.968;105.834;2023-03-01T09:49:17;20.90;99.90
22607;DHT22;11470;20.968;105.834;2023-03-01T09:54:25;20.90;99.90
22607;DHT22;11470;20.968;105.834;2023-03-01T09:59:56;20.90;99.90
22607;DHT22;11470;20.968;105.834;2023-03-01T10:10:33;20.90;99.90
22607;DHT22;11470;20.968;105.834;2023-03-01T10:15:57;20.90;99.90
22607;DHT22;11470;20.968;105.834;2023-03-01T10:21:15;20.90;99.90
22607;DHT22;11470;20.968;105.834;2023-03-01T10:26:54;20.90;99.90
22607;DHT22;11470;20.968;105.834;2023-03-01T10:32:01;20.90;99.90
22607;DHT22;11470;20.968;105.834;2023-03-01T10:37:17;20.80;99.90
22607;DHT22;11470;20.968;105.834;2023-03-01T10:42:31;20.80;99.90
22607;DHT22;11470;20.968;105.834;2023-03-01T10:47:37;20.70;99.90
22607;DHT22;11470;20.968;105.834;2023-03-01T10:52:57;20.70;99.90
22607;DHT22;11470;20.968;105.834;2023-03-01T10:58:20;20.60;99.90
22607;DHT22;11470;20.968;105.834;2023-03-01T11:03:36;20.60;99.90
22607;DHT22;11470;20.968;105.834;2023-03-01T11:08:48;20.50;99.90
22607;DHT22;11470;20.968;105.834;2023-03-01T11:24:19;20.50;99.90
22607;DHT22;11470;20.968;105.834;2023-03-01T12:37:42;20.40;99.90
22607;DHT22;11470;20.968;105.834;2023-03-01T12:53:44;20.30;99.90
22607;DHT22;11470;20.968;105.834;2023-03-01T12:58:59;20.30;99.90
22607;DHT22;11470;20.968;105.834;2023-03-01T13:04:51;20.40;99.90
22607;DHT22;11470;20.968;105.834;2023-03-01T13:15:37;20.30;99.90
22607;DHT22;11470;20.968;105.834;2023-03-01T13:20:52;20.30;99.90
22607;DHT22;11470;20.968;105.834;2023-03-01T13:26:09;20.30;99.90
22607;DHT22;11470;20.968;105.834;2023-03-01T13:36:48;20.30;99.90
22607;DHT22;11470;20.968;105.834;2023-03-01T13:41:56;20.30;99.90
22607;DHT22;11470;20.968;105.834;2023-03-01T13:47:16;20.30;99.90
22607;DHT22;11470;20.968;105.834;2023-03-01T13:58:31;20.20;99.90
22607;DHT22;11470;20.968;105.834;2023-03-01T14:03:43;20.20;99.90
22607;DHT22;11470;20.968;105.834;2023-03-01T14:09:04;20.20;99.90
22607;DHT22;11470;20.968;105.834;2023-03-01T14:20:00;20.30;99.90
22607;DHT22;11470;20.968;105.834;2023-03-01T14:25:26;20.30;99.90
22607;DHT22;11470;20.968;105.834;2023-03-01T14:30:45;20.40;99.90
22607;DHT22;11470;20.968;105.834;2023-03-01T14:41:25;20.30;99.90
22607;DHT22;11470;20.968;105.834;2023-03-01T14:46:37;20.30;99.90
22607;DHT22;11470;20.968;105.834;2023-03-01T14:52:04;20.30;99.90
22607;DHT22;11470;20.968;105.834;2023-03-01T14:57:30;20.40;99.90
22607;DHT22;11470;20.968;105.834;2023-03-01T15:02:37;20.40;99.90
22607;DHT22;11470;20.968;105.834;2023-03-01T15:07:46;20.30;99.90
22607;DHT22;11470;20.968;105.834;2023-03-01T15:12:56;20.40;99.90
22607;DHT22;11470;20.968;105.834;2023-03-01T15:18:11;20.30;99.90
22607;DHT22;11470;20.968;105.834;2023-03-01T15:23:25;20.30;99.90
22607;DHT22;11470;20.968;105.834;2023-03-01T15:28:42;20.30;99.90
22607;DHT22;11470;20.968;105.834;2023-03-01T15:34:11;20.20;99.90
22607;DHT22;11470;20.968;105.834;2023-03-01T15:39:53;20.20;99.90
22607;DHT22;11470;20.968;105.834;2023-03-01T15:45:22;20.20;99.90
22607;DHT22;11470;20.968;105.834;2023-03-01T15:50:34;20.20;99.90
22607;DHT22;11470;20.968;105.834;2023-03-01T15:55:42;20.20;99.90
22607;DHT22;11470;20.968;105.834;2023-03-01T16:00:49;20.20;99.90
22607;DHT22;11470;20.968;105.834;2023-03-01T16:06:04;20.20;99.90
22607;DHT22;11470;20.968;105.834;2023-03-01T16:11:17;20.20;99.90
22607;DHT22;11470;20.968;105.834;2023-03-01T16:16:24;20.20;99.90
22607;DHT22;11470;20.968;105.834;2023-03-01T16:21:32;20.20;99.90
22607;DHT22;11470;20.968;105.834;2023-03-01T16:26:39;20.20;99.90
22607;DHT22;11470;20.968;105.834;2023-03-01T16:31:45;20.20;99.90
22607;DHT22;11470;20.968;105.834;2023-03-01T16:36:52;20.30;99.90
22607;DHT22;11470;20.968;105.834;2023-03-01T16:42:00;20.20;99.90
22607;DHT22;11470;20.968;105.834;2023-03-01T16:47:07;20.20;99.90
22607;DHT22;11470;20.968;105.834;2023-03-01T16:52:13;20.30;99.90
22607;DHT22;11470;20.968;105.834;2023-03-01T16:57:19;20.40;99.90
22607;DHT22;11470;20.968;105.834;2023-03-01T17:02:25;20.40;99.90
22607;DHT22;11470;20.968;105.834;2023-03-01T17:07:32;20.30;99.90
22607;DHT22;11470;20.968;105.834;2023-03-01T17:12:39;20.30;99.90
22607;DHT22;11470;20.968;105.834;2023-03-01T17:17:45;20.40;99.90
22607;DHT22;11470;20.968;105.834;2023-03-01T17:22:56;20.40;99.90
22607;DHT22;11470;20.968;105.834;2023-03-01T17:28:02;20.40;99.90
22607;DHT22;11470;20.968;105.834;2023-03-01T17:33:08;20.20;99.90
22607;DHT22;11470;20.968;105.834;2023-03-01T17:38:14;20.20;99.90
22607;DHT22;11470;20.968;105.834;2023-03-01T17:43:20;20.20;99.90
22607;DHT22;11470;20.968;105.834;2023-03-01T17:48:26;20.30;99.90
22607;DHT22;11470;20.968;105.834;2023-03-01T17:53:34;20.40;99.90
22607;DHT22;11470;20.968;105.834;2023-03-01T17:58:40;20.40;99.90
22607;DHT22;11470;20.968;105.834;2023-03-01T18:03:46;20.20;99.90
22607;DHT22;11470;20.968;105.834;2023-03-01T18:08:53;20.30;99.90
22607;DHT22;11470;20.968;105.834;2023-03-01T18:14:00;20.30;99.90
22607;DHT22;11470;20.968;105.834;2023-03-01T18:19:06;20.20;99.90
22607;DHT22;11470;20.968;105.834;2023-03-01T18:24:12;20.20;99.90
22607;DHT22;11470;20.968;105.834;2023-03-01T18:29:18;20.10;99.90
22607;DHT22;11470;20.968;105.834;2023-03-01T18:34:24;20.00;99.90
22607;DHT22;11470;20.968;105.834;2023-03-01T18:39:30;20.00;99.90
22607;DHT22;11470;20.968;105.834;2023-03-01T18:44:36;19.90;99.90
22607;DHT22;11470;20.968;105.834;2023-03-01T18:49:42;19.90;99.90
22607;DHT22;11470;20.968;105.834;2023-03-01T18:54:49;20.00;99.90
22607;DHT22;11470;20.968;105.834;2023-03-01T18:59:55;20.10;99.90
22607;DHT22;11470;20.968;105.834;2023-03-01T19:05:02;20.20;99.90
22607;DHT22;11470;20.968;105.834;2023-03-01T19:10:07;20.20;99.90
22607;DHT22;11470;20.968;105.834;2023-03-01T19:15:14;20.20;99.90
22607;DHT22;11470;20.968;105.834;2023-03-01T19:20:20;20.20;99.90
22607;DHT22;11470;20.968;105.834;2023-03-01T19:25:26;20.10;99.90
22607;DHT22;11470;20.968;105.834;2023-03-01T19:30:32;20.20;99.90
22607;DHT22;11470;20.968;105.834;2023-03-01T19:35:38;20.00;99.90
22607;DHT22;11470;20.968;105.834;2023-03-01T19:40:45;20.00;99.90
22607;DHT22;11470;20.968;105.834;2023-03-01T19:45:53;19.90;99.90
22607;DHT22;11470;20.968;105.834;2023-03-01T19:50:59;19.80;99.90
22607;DHT22;11470;20.968;105.834;2023-03-01T19:56:06;19.80;99.90
22607;DHT22;11470;20.968;105.834;2023-03-01T20:01:21;19.80;99.90
22607;DHT22;11470;20.968;105.834;2023-03-01T20:06:28;19.70;99.90
22607;DHT22;11470;20.968;105.834;2023-03-01T20:11:35;19.70;99.90
22607;DHT22;11470;20.968;105.834;2023-03-01T20:16:42;19.70;99.90
22607;DHT22;11470;20.968;105.834;2023-03-01T20:21:47;19.70;99.90
22607;DHT22;11470;20.968;105.834;2023-03-01T20:26:54;19.70;99.90
22607;DHT22;11470;20.968;105.834;2023-03-01T20:32:00;19.70;99.90
22607;DHT22;11470;20.968;105.834;2023-03-01T20:37:07;19.70;99.90
22607;DHT22;11470;20.968;105.834;2023-03-01T20:42:13;19.70;99.90
22607;DHT22;11470;20.968;105.834;2023-03-01T20:47:20;19.70;99.90
22607;DHT22;11470;20.968;105.834;2023-03-01T20:52:27;19.70;99.90
22607;DHT22;11470;20.968;105.834;2023-03-01T20:57:45;19.80;99.90
22607;DHT22;11470;20.968;105.834;2023-03-01T21:02:52;19.80;99.90
22607;DHT22;11470;20.968;105.834;2023-03-01T21:07:58;19.80;99.90
22607;DHT22;11470;20.968;105.834;2023-03-01T21:13:07;19.70;99.90
22607;DHT22;11470;20.968;105.834;2023-03-01T21:18:14;19.70;99.90
22607;DHT22;11470;20.968;105.834;2023-03-01T21:23:22;19.70;99.90
22607;DHT22;11470;20.968;105.834;2023-03-01T21:28:27;19.70;99.90
22607;DHT22;11470;20.968;105.834;2023-03-01T21:33:38;19.80;99.90
22607;DHT22;11470;20.968;105.834;2023-03-01T21:38:46;19.80;99.90
22607;DHT22;11470;20.968;105.834;2023-03-01T21:43:54;19.70;99.90
22607;DHT22;11470;20.968;105.834;2023-03-01T21:49:09;19.60;99.90
22607;DHT22;11470;20.968;105.834;2023-03-01T21:54:17;19.70;99.90
22607;DHT22;11470;20.968;105.834;2023-03-01T21:59:24;19.80;99.90
22607;DHT22;11470;20.968;105.834;2023-03-01T22:04:31;19.70;99.90
22607;DHT22;11470;20.968;105.834;2023-03-01T22:09:38;19.70;99.90
22607;DHT22;11470;20.968;105.834;2023-03-01T22:14:45;19.80;99.90
22607;DHT22;11470;20.968;105.834;2023-03-01T22:19:51;19.80;99.90
22607;DHT22;11470;20.968;105.834;2023-03-01T22:24:57;19.80;99.90
22607;DHT22;11470;20.968;105.834;2023-03-01T22:30:08;19.80;99.90
22607;DHT22;11470;20.968;105.834;2023-03-01T22:35:15;19.90;99.90
22607;DHT22;11470;20.968;105.834;2023-03-01T22:40:20;19.80;99.90
22607;DHT22;11470;20.968;105.834;2023-03-01T22:45:30;19.80;99.90
22607;DHT22;11470;20.968;105.834;2023-03-01T22:50:36;19.80;99.90
22607;DHT22;11470;20.968;105.834;2023-03-01T22:55:44;19.90;99.90
22607;DHT22;11470;20.968;105.834;2023-03-01T23:00:50;19.80;99.90
22607;DHT22;11470;20.968;105.834;2023-03-01T23:05:57;19.80;99.90
22607;DHT22;11470;20.968;105.834;2023-03-01T23:11:08;19.80;99.90
22607;DHT22;11470;20.968;105.834;2023-03-01T23:16:15;19.80;99.90
22607;DHT22;11470;20.968;105.834;2023-03-01T23:21:21;19.70;99.90
22607;DHT22;11470;20.968;105.834;2023-03-01T23:26:28;19.60;99.90
22607;DHT22;11470;20.968;105.834;2023-03-01T23:31:36;19.80;99.90
22607;DHT22;11470;20.968;105.834;2023-03-01T23:36:45;19.80;99.90
22607;DHT22;11470;20.968;105.834;2023-03-01T23:41:51;19.80;99.90
22607;DHT22;11470;20.968;105.834;2023-03-01T23:46:59;19.80;99.90
22607;DHT22;11470;20.968;105.834;2023-03-01T23:52:05;19.80;99.90
22607;DHT22;11470;20.968;105.834;2023-03-01T23:57:11;19.90;99.90
